createdAt,value
2022-10-19T00:01:21.798Z,2.05
2022-10-19T00:06:25.589Z,2.28
2022-10-19T00:08:53.079Z,2.78
2022-10-19T00:11:19.486Z,2.45
2022-10-19T00:13:45.862Z,2.35
2022-10-19T00:16:13.181Z,2.10
2022-10-19T00:18:39.915Z,1.90
2022-10-19T00:21:07.702Z,2.50
2022-10-19T00:26:00.648Z,2.00
2022-10-19T00:28:27.411Z,2.58
2022-10-19T00:30:53.859Z,2.40
2022-10-19T00:33:22.438Z,2.33
2022-10-19T00:35:49.986Z,2.25
2022-10-19T00:38:17.449Z,2.55
2022-10-19T00:40:43.957Z,2.10
2022-10-19T00:43:15.244Z,2.80
2022-10-19T00:45:41.787Z,2.50
2022-10-19T00:48:09.270Z,3.30
2022-10-19T00:50:35.903Z,2.30
2022-10-19T00:53:02.354Z,2.92
2022-10-19T00:55:28.821Z,2.70
2022-10-19T00:57:55.558Z,2.83
2022-10-19T01:00:21.910Z,2.78
2022-10-19T01:02:48.334Z,2.90
2022-10-19T01:05:16.142Z,2.67
2022-10-19T01:10:09.751Z,2.42
2022-10-19T01:12:50.455Z,2.80
2022-10-19T01:15:19.802Z,2.83
2022-10-19T01:17:52.364Z,2.60
2022-10-19T01:20:31.031Z,2.53
2022-10-19T01:22:57.370Z,2.63
2022-10-19T01:25:35.866Z,2.60
2022-10-19T01:28:02.224Z,2.83
2022-10-19T01:30:34.770Z,2.80
2022-10-19T01:33:03.649Z,2.70
2022-10-19T01:35:43.738Z,2.92
2022-10-19T01:38:23.328Z,2.83
2022-10-19T01:41:08.563Z,2.72
2022-10-19T01:43:42.165Z,2.85
2022-10-19T01:46:11.306Z,3.10
2022-10-19T01:48:39.087Z,2.75
2022-10-19T01:53:33.327Z,2.88
2022-10-19T01:56:01.962Z,3.00
2022-10-19T01:58:30.573Z,3.45
2022-10-19T02:00:58.507Z,3.42
2022-10-19T02:03:25.536Z,3.10
2022-10-19T02:05:52.938Z,3.77
2022-10-19T02:08:23.194Z,4.25
2022-10-19T02:10:50.008Z,3.33
2022-10-19T02:13:16.892Z,3.88
2022-10-19T02:15:45.800Z,3.65
2022-10-19T02:18:17.473Z,3.58
2022-10-19T02:20:43.859Z,3.70
2022-10-19T02:23:10.354Z,3.88
2022-10-19T02:25:36.813Z,3.63
2022-10-19T02:28:03.886Z,3.50
2022-10-19T02:30:30.402Z,3.60
2022-10-19T02:32:56.829Z,3.20
2022-10-19T02:35:23.343Z,3.53
2022-10-19T02:37:49.736Z,3.30
2022-10-19T02:40:16.124Z,3.85
2022-10-19T02:42:48.098Z,3.67
2022-10-19T02:45:21.225Z,3.65
2022-10-19T02:48:00.360Z,3.42
2022-10-19T02:50:26.931Z,3.55
2022-10-19T02:52:53.376Z,3.33
2022-10-19T02:55:19.780Z,3.42
2022-10-19T02:57:46.210Z,3.20
2022-10-19T03:00:12.668Z,3.80
2022-10-19T03:02:39.060Z,3.78
2022-10-19T03:05:05.659Z,3.40
2022-10-19T03:07:32.478Z,3.53
2022-10-19T03:09:59.350Z,3.78
2022-10-19T03:12:25.781Z,3.95
2022-10-19T03:14:52.198Z,3.97
2022-10-19T03:17:18.549Z,3.60
2022-10-19T03:19:45.703Z,4.43
2022-10-19T03:22:13.011Z,3.92
2022-10-19T03:24:39.367Z,4.03
2022-10-19T03:27:05.903Z,3.45
2022-10-19T03:29:32.262Z,4.00
2022-10-19T03:31:58.656Z,3.90
2022-10-19T03:34:25.048Z,4.63
2022-10-19T03:36:51.399Z,4.22
2022-10-19T03:39:17.913Z,4.38
2022-10-19T03:41:44.665Z,3.38
2022-10-19T03:44:11.424Z,3.47
2022-10-19T03:46:38.240Z,3.90
2022-10-19T03:49:04.803Z,4.00
2022-10-19T03:51:31.627Z,3.72
2022-10-19T03:53:59.326Z,4.55
2022-10-19T03:58:52.672Z,3.58
2022-10-19T04:01:23.982Z,3.97
2022-10-19T04:03:57.851Z,3.92
2022-10-19T04:06:25.575Z,3.72
2022-10-19T04:11:19.263Z,3.80
2022-10-19T04:13:47.670Z,3.67
2022-10-19T04:16:14.143Z,4.35
2022-10-19T04:18:40.538Z,3.90
2022-10-19T04:21:07.261Z,3.63
2022-10-19T04:23:35.222Z,3.83
2022-10-19T04:26:02.433Z,3.65
2022-10-19T04:28:28.951Z,3.53
2022-10-19T04:30:55.428Z,3.17
2022-10-19T04:33:21.851Z,4.15
2022-10-19T04:35:48.265Z,3.55
2022-10-19T04:38:14.653Z,3.50
2022-10-19T04:40:40.999Z,3.00
2022-10-19T04:43:07.386Z,3.35
2022-10-19T04:45:35.192Z,3.33
2022-10-19T04:50:28.630Z,3.15
2022-10-19T04:52:54.994Z,3.10
2022-10-19T04:55:21.339Z,3.83
2022-10-19T04:57:47.771Z,3.15
2022-10-19T05:00:14.817Z,3.42
2022-10-19T05:02:45.034Z,3.05
2022-10-19T05:05:12.395Z,3.63
2022-10-19T05:07:38.787Z,4.22
2022-10-19T05:10:05.780Z,3.17
2022-10-19T05:12:32.142Z,3.53
2022-10-19T05:14:58.531Z,3.17
2022-10-19T05:17:24.897Z,3.50
2022-10-19T05:19:51.250Z,3.35
2022-10-19T05:22:17.615Z,3.42
2022-10-19T05:24:43.984Z,3.65
2022-10-19T05:27:10.338Z,3.67
2022-10-19T05:29:36.754Z,3.70
2022-10-19T05:32:03.133Z,3.85
2022-10-19T05:34:29.496Z,3.95
2022-10-19T05:36:56.548Z,3.50
2022-10-19T05:39:23.296Z,4.40
2022-10-19T05:41:49.856Z,4.47
2022-10-19T05:44:17.497Z,3.90
2022-10-19T05:46:44.280Z,3.75
2022-10-19T05:49:14.411Z,4.07
2022-10-19T05:51:40.802Z,3.97
2022-10-19T05:54:07.979Z,4.18
2022-10-19T05:56:34.345Z,4.10
2022-10-19T05:59:02.456Z,4.20
2022-10-19T06:01:29.392Z,4.18
2022-10-19T06:03:56.603Z,4.80
2022-10-19T06:06:23.537Z,4.20
2022-10-19T06:08:50.728Z,4.57
2022-10-19T06:11:21.405Z,4.03
2022-10-19T06:13:50.364Z,3.83
2022-10-19T06:16:17.536Z,4.15
2022-10-19T06:18:44.388Z,4.15
2022-10-19T06:21:12.458Z,3.90
2022-10-19T06:23:39.041Z,3.58
2022-10-19T06:26:09.845Z,4.10
2022-10-19T06:28:37.112Z,4.00
2022-10-19T06:31:07.083Z,4.15
2022-10-19T06:33:35.804Z,4.40
2022-10-19T06:36:12.592Z,3.75
2022-10-19T06:38:39.190Z,4.10
2022-10-19T06:41:05.943Z,4.03
2022-10-19T06:43:32.511Z,4.40
2022-10-19T06:45:58.920Z,4.55
2022-10-19T06:48:25.326Z,3.72
2022-10-19T06:51:01.372Z,4.32
2022-10-19T06:53:29.129Z,4.38
2022-10-19T06:58:21.798Z,4.30
2022-10-19T07:00:54.136Z,4.60
2022-10-19T07:03:20.527Z,4.25
2022-10-19T07:05:52.544Z,4.68
2022-10-19T07:08:18.904Z,4.68
2022-10-19T07:10:49.174Z,4.88
2022-10-19T07:13:15.762Z,4.43
2022-10-19T07:15:42.139Z,5.30
2022-10-19T07:18:08.494Z,5.78
2022-10-19T07:20:34.868Z,5.00
2022-10-19T07:23:01.217Z,5.60
2022-10-19T07:25:28.083Z,5.85
2022-10-19T07:27:54.526Z,5.57
2022-10-19T07:30:20.950Z,5.97
2022-10-19T07:32:47.325Z,5.82
2022-10-19T07:35:13.862Z,5.72
2022-10-19T07:37:40.331Z,5.95
2022-10-19T07:40:07.020Z,6.13
2022-10-19T07:42:33.361Z,6.40
2022-10-19T07:45:00.180Z,6.68
2022-10-19T07:47:26.549Z,6.38
2022-10-19T07:49:52.903Z,6.78
2022-10-19T07:52:19.268Z,6.03
2022-10-19T07:54:49.413Z,6.85
2022-10-19T07:57:16.010Z,6.50
2022-10-19T07:59:42.351Z,6.55
2022-10-19T08:02:14.943Z,6.63
2022-10-19T08:05:01.330Z,6.25
2022-10-19T08:07:27.713Z,6.40
2022-10-19T08:09:54.485Z,6.25
2022-10-19T08:12:21.058Z,5.60
2022-10-19T08:14:48.155Z,6.50
2022-10-19T08:17:17.403Z,5.30
2022-10-19T08:19:44.406Z,6.00
2022-10-19T08:22:10.976Z,5.85
2022-10-19T08:24:37.366Z,5.97
2022-10-19T08:27:03.798Z,6.25
2022-10-19T08:29:31.508Z,5.57
2022-10-19T08:31:58.682Z,6.05
2022-10-19T08:34:25.479Z,6.15
2022-10-19T08:36:51.848Z,6.00
2022-10-19T08:39:18.300Z,5.47
2022-10-19T08:44:28.238Z,5.30
2022-10-19T08:47:02.495Z,4.43
2022-10-19T08:49:30.322Z,4.72
2022-10-19T08:52:02.119Z,5.38
2022-10-19T08:54:32.491Z,4.97
2022-10-19T08:57:20.100Z,4.68
2022-10-19T08:59:46.510Z,4.93
2022-10-19T09:02:25.326Z,4.70
2022-10-19T09:04:58.321Z,5.25
2022-10-19T09:07:29.762Z,4.63
2022-10-19T09:09:58.043Z,4.30
2022-10-19T09:12:31.618Z,4.72
2022-10-19T09:15:01.286Z,4.80
2022-10-19T09:17:27.943Z,4.57
2022-10-19T09:19:54.330Z,4.50
2022-10-19T09:22:20.763Z,3.67
2022-10-19T09:24:50.462Z,4.18
2022-10-19T09:27:21.182Z,4.32
2022-10-19T09:29:50.399Z,3.35
2022-10-19T09:32:22.644Z,3.95
2022-10-19T09:34:54.005Z,3.50
2022-10-19T09:37:26.053Z,3.72
2022-10-19T09:39:54.947Z,3.80
2022-10-19T09:42:22.476Z,3.45
2022-10-19T09:44:50.545Z,3.55
2022-10-19T09:47:39.721Z,3.58
2022-10-19T09:50:08.465Z,3.33
2022-10-19T09:52:36.458Z,3.53
2022-10-19T09:55:02.768Z,2.75
2022-10-19T09:57:29.242Z,3.13
2022-10-19T09:59:56.044Z,2.72
2022-10-19T10:02:28.813Z,2.88
2022-10-19T10:04:56.631Z,2.50
2022-10-19T10:07:25.493Z,2.80
2022-10-19T10:09:52.545Z,3.10
2022-10-19T10:12:18.958Z,2.95
2022-10-19T10:14:45.488Z,2.75
2022-10-19T10:17:23.204Z,2.78
2022-10-19T10:20:02.708Z,2.35
2022-10-19T10:22:31.215Z,2.28
2022-10-19T10:24:57.736Z,2.50
2022-10-19T10:27:31.968Z,2.30
2022-10-19T10:29:58.665Z,2.67
2022-10-19T10:32:25.418Z,2.10
2022-10-19T10:35:02.824Z,2.50
2022-10-19T10:37:30.648Z,2.20
2022-10-19T10:40:00.551Z,2.40
2022-10-19T10:42:35.017Z,2.28
2022-10-19T10:45:02.012Z,2.65
2022-10-19T10:47:29.505Z,2.15
2022-10-19T10:50:01.284Z,2.55
2022-10-19T10:52:29.071Z,2.10
2022-10-19T10:54:58.488Z,2.38
2022-10-19T10:57:25.823Z,2.28
2022-10-19T11:00:03.823Z,2.90
2022-10-19T11:02:42.320Z,2.90
2022-10-19T11:05:18.084Z,2.72
2022-10-19T11:07:46.634Z,2.90
2022-10-19T11:10:20.229Z,2.80
2022-10-19T11:12:49.389Z,2.80
2022-10-19T11:15:22.267Z,2.25
2022-10-19T11:17:53.909Z,3.08
2022-10-19T11:20:21.206Z,2.45
2022-10-19T11:22:57.119Z,2.30
2022-10-19T11:25:32.402Z,2.45
2022-10-19T11:28:05.153Z,2.17
2022-10-19T11:30:35.527Z,2.45
2022-10-19T11:33:06.577Z,2.30
2022-10-19T11:35:42.103Z,2.20
2022-10-19T11:38:19.695Z,2.40
2022-10-19T11:41:18.262Z,2.20
2022-10-19T11:43:45.086Z,2.70
2022-10-19T11:46:29.965Z,3.00
2022-10-19T11:48:56.351Z,2.05
2022-10-19T11:51:31.345Z,2.28
2022-10-19T11:54:00.712Z,2.50
2022-10-19T11:56:39.313Z,2.63
2022-10-19T11:59:20.344Z,2.67
2022-10-19T12:01:54.385Z,2.63
2022-10-19T12:04:39.913Z,2.42
2022-10-19T12:07:24.861Z,2.58
2022-10-19T12:09:51.261Z,2.35
2022-10-19T12:12:26.923Z,2.30
2022-10-19T12:15:00.737Z,2.63
2022-10-19T12:17:29.302Z,2.50
2022-10-19T12:19:59.063Z,2.80
2022-10-19T12:22:28.279Z,2.83
2022-10-19T12:24:55.477Z,2.47
2022-10-19T12:27:28.210Z,2.30
2022-10-19T12:29:55.171Z,3.00
2022-10-19T12:34:50.951Z,2.38
2022-10-19T12:37:26.995Z,2.47
2022-10-19T12:39:56.361Z,2.92
2022-10-19T12:42:29.666Z,3.00
2022-10-19T12:45:05.717Z,2.22
2022-10-19T12:47:32.650Z,2.22
2022-10-19T12:49:59.803Z,2.10
2022-10-19T12:54:52.591Z,2.03
2022-10-19T12:57:22.897Z,2.10
2022-10-19T12:59:59.451Z,1.88
2022-10-19T13:02:29.103Z,1.90
2022-10-19T13:04:55.522Z,2.08
2022-10-19T13:07:21.899Z,1.90
2022-10-19T13:09:48.553Z,1.77
2022-10-19T13:12:19.359Z,1.92
2022-10-19T13:14:51.732Z,2.10
2022-10-19T13:17:40.697Z,1.80
2022-10-19T13:20:13.290Z,2.47
2022-10-19T13:22:40.495Z,2.10
2022-10-19T13:25:18.912Z,1.80
2022-10-19T13:27:46.138Z,2.00
2022-10-19T13:30:30.999Z,1.70
2022-10-19T13:32:57.431Z,1.73
2022-10-19T13:35:23.811Z,1.70
2022-10-19T13:38:08.973Z,1.70
2022-10-19T13:40:58.201Z,1.98
2022-10-19T13:43:25.965Z,1.90
2022-10-19T13:46:02.976Z,2.13
2022-10-19T13:48:37.783Z,1.67
2022-10-19T13:51:27.244Z,1.58
2022-10-19T13:53:56.380Z,2.00
2022-10-19T13:56:45.736Z,1.75
2022-10-19T13:59:18.308Z,1.92
2022-10-19T14:02:11.254Z,2.13
2022-10-19T14:04:56.282Z,1.70
2022-10-19T14:07:25.851Z,1.50
2022-10-19T14:09:52.146Z,1.70
2022-10-19T14:12:25.698Z,1.35
2022-10-19T14:14:53.660Z,1.65
2022-10-19T14:17:21.636Z,1.67
2022-10-19T14:19:50.458Z,1.60
2022-10-19T14:22:26.015Z,1.58
2022-10-19T14:24:59.323Z,1.75
2022-10-19T14:27:25.726Z,1.63
2022-10-19T14:29:53.108Z,1.45
2022-10-19T14:32:22.278Z,1.50
2022-10-19T14:34:48.973Z,1.63
2022-10-19T14:37:25.874Z,1.60
2022-10-19T14:40:26.421Z,1.38
2022-10-19T14:42:54.474Z,1.40
2022-10-19T14:45:28.525Z,1.83
2022-10-19T14:47:59.782Z,1.80
2022-10-19T14:50:28.091Z,1.75
2022-10-19T14:52:58.429Z,1.65
2022-10-19T14:55:26.710Z,2.20
2022-10-19T14:57:53.398Z,1.85
2022-10-19T15:00:23.839Z,2.10
2022-10-19T15:03:05.714Z,1.85
2022-10-19T15:05:34.006Z,1.95
2022-10-19T15:08:07.782Z,2.35
2022-10-19T15:10:45.794Z,2.22
2022-10-19T15:13:32.469Z,1.92
2022-10-19T15:15:59.139Z,1.98
2022-10-19T15:18:47.531Z,1.90
2022-10-19T15:21:19.791Z,2.50
2022-10-19T15:23:46.853Z,2.50
2022-10-19T15:26:17.343Z,2.42
2022-10-19T15:28:44.424Z,2.63
2022-10-19T15:31:15.283Z,2.70
2022-10-19T15:33:49.922Z,3.00
2022-10-19T15:36:19.970Z,3.10
2022-10-19T15:38:47.719Z,2.70
2022-10-19T15:41:21.651Z,3.00
2022-10-19T15:43:52.533Z,3.28
2022-10-19T15:46:23.349Z,3.42
2022-10-19T15:48:55.143Z,3.13
2022-10-19T15:51:25.218Z,3.50
2022-10-19T15:53:52.398Z,2.95
2022-10-19T15:56:19.333Z,2.83
2022-10-19T15:58:48.486Z,2.67
2022-10-19T16:01:16.487Z,2.88
2022-10-19T16:03:42.854Z,3.13
2022-10-19T16:06:09.255Z,2.85
2022-10-19T16:08:35.673Z,2.75
2022-10-19T16:11:04.035Z,2.92
2022-10-19T16:13:30.689Z,3.15
2022-10-19T16:16:10.521Z,2.38
2022-10-19T16:18:37.321Z,2.50
2022-10-19T16:21:04.205Z,2.60
2022-10-19T16:23:36.502Z,3.25
2022-10-19T16:26:06.234Z,2.83
2022-10-19T16:28:32.655Z,2.80
2022-10-19T16:30:59.078Z,2.90
2022-10-19T16:33:25.450Z,3.08
2022-10-19T16:35:51.765Z,3.00
2022-10-19T16:38:18.122Z,3.13
2022-10-19T16:40:44.471Z,3.08
2022-10-19T16:43:10.886Z,3.05
2022-10-19T16:45:41.915Z,2.88
2022-10-19T16:48:09.763Z,3.35
2022-10-19T16:50:36.136Z,3.45
2022-10-19T16:53:04.077Z,3.20
2022-10-19T16:55:30.590Z,3.17
2022-10-19T16:57:56.951Z,2.95
2022-10-19T17:00:23.315Z,3.13
2022-10-19T17:02:49.622Z,3.35
2022-10-19T17:05:16.075Z,3.25
2022-10-19T17:07:42.457Z,3.28
2022-10-19T17:10:09.045Z,3.28
2022-10-19T17:12:35.555Z,3.67
2022-10-19T17:15:29.903Z,4.30
2022-10-19T17:17:48.480Z,4.50
2022-10-19T17:20:15.759Z,3.97
2022-10-19T17:22:42.082Z,3.97
2022-10-19T17:25:09.055Z,3.50
2022-10-19T17:27:35.422Z,4.45
2022-10-19T17:30:01.763Z,4.70
2022-10-19T17:32:28.149Z,3.83
2022-10-19T17:34:54.555Z,4.47
2022-10-19T17:37:20.897Z,5.10
2022-10-19T17:39:50.175Z,5.07
2022-10-19T17:42:16.520Z,4.70
2022-10-19T17:44:42.899Z,5.00
2022-10-19T17:47:09.275Z,12.35
2022-10-19T17:49:36.677Z,33.97
2022-10-19T17:52:03.014Z,5.82
2022-10-19T17:54:29.406Z,4.85
2022-10-19T17:56:55.749Z,4.72
2022-10-19T17:59:30.071Z,4.68
2022-10-19T18:02:01.479Z,4.55
2022-10-19T18:04:27.815Z,4.25
2022-10-19T18:06:54.265Z,4.70
2022-10-19T18:09:20.613Z,4.32
2022-10-19T18:11:46.922Z,4.30
2022-10-19T18:14:13.527Z,4.60
2022-10-19T18:16:41.662Z,4.68
2022-10-19T18:19:08.993Z,5.05
2022-10-19T18:21:38.474Z,5.18
2022-10-19T18:24:05.310Z,4.50
2022-10-19T18:26:32.461Z,5.35
2022-10-19T18:28:59.225Z,4.95
2022-10-19T18:31:30.800Z,5.33
2022-10-19T18:33:57.292Z,5.03
2022-10-19T18:36:24.029Z,5.30
2022-10-19T18:38:51.509Z,5.30
2022-10-19T18:41:18.161Z,5.90
2022-10-19T18:43:44.520Z,5.20
2022-10-19T18:46:10.943Z,5.75
2022-10-19T18:48:37.975Z,5.28
2022-10-19T18:51:06.245Z,5.40
2022-10-19T18:53:33.065Z,6.20
2022-10-19T18:56:04.003Z,6.30
2022-10-19T18:58:30.989Z,6.05
2022-10-19T19:01:10.999Z,6.53
2022-10-19T19:03:38.366Z,6.07
2022-10-19T19:06:06.055Z,6.65
2022-10-19T19:11:09.239Z,6.80
2022-10-19T19:13:35.588Z,7.07
2022-10-19T19:16:01.927Z,7.03
2022-10-19T19:18:29.182Z,7.10
2022-10-19T19:20:55.502Z,6.43
2022-10-19T19:23:21.873Z,7.53
2022-10-19T19:25:48.320Z,7.22
2022-10-19T19:28:14.723Z,6.22
2022-10-19T19:30:41.678Z,7.13
2022-10-19T19:33:08.121Z,8.20
2022-10-19T19:35:34.559Z,6.97
2022-10-19T19:38:00.892Z,8.05
2022-10-19T19:40:27.211Z,7.75
2022-10-19T19:42:53.574Z,7.55
2022-10-19T19:45:19.904Z,7.72
2022-10-19T19:47:46.228Z,7.70
2022-10-19T19:50:12.613Z,9.15
2022-10-19T19:52:40.527Z,8.80
2022-10-19T19:55:07.190Z,8.18
2022-10-19T19:57:33.873Z,9.02
2022-10-19T20:00:00.434Z,8.93
2022-10-19T20:02:26.852Z,10.85
2022-10-19T20:04:53.186Z,10.35
2022-10-19T20:07:19.591Z,10.00
2022-10-19T20:09:45.988Z,11.02
2022-10-19T20:12:12.303Z,12.45
2022-10-19T20:14:38.714Z,10.80
2022-10-19T20:17:05.060Z,11.13
2022-10-19T20:19:31.391Z,12.80
2022-10-19T20:22:00.110Z,17.42
2022-10-19T20:24:26.473Z,9.25
2022-10-19T20:26:52.774Z,10.88
2022-10-19T20:29:19.115Z,13.27
2022-10-19T20:31:45.455Z,11.23
2022-10-19T20:34:13.576Z,9.48
2022-10-19T20:36:40.261Z,10.40
2022-10-19T20:39:06.598Z,11.93
2022-10-19T20:41:32.982Z,12.43
2022-10-19T20:43:59.348Z,11.90
2022-10-19T20:46:27.412Z,10.25
2022-10-19T20:48:54.763Z,12.63
2022-10-19T20:51:25.904Z,10.68
2022-10-19T20:53:55.752Z,11.32
2022-10-19T20:56:23.647Z,16.02
2022-10-19T20:59:19.439Z,19.27
2022-10-19T21:01:48.501Z,12.73
2022-10-19T21:04:15.265Z,12.18
2022-10-19T21:06:42.775Z,14.07
2022-10-19T21:09:10.156Z,16.27
2022-10-19T21:11:37.966Z,11.38
2022-10-19T21:14:07.777Z,11.63
2022-10-19T21:16:35.174Z,12.15
2022-10-19T21:19:02.219Z,11.43
2022-10-19T21:21:33.028Z,12.48
2022-10-19T21:24:00.937Z,11.80
2022-10-19T21:26:27.993Z,11.80
2022-10-19T21:28:54.730Z,11.60
2022-10-19T21:31:22.002Z,11.90
2022-10-19T21:33:48.731Z,11.80
2022-10-19T21:36:15.147Z,12.20
2022-10-19T21:38:42.021Z,12.13
2022-10-19T21:41:10.990Z,12.85
2022-10-19T21:43:37.358Z,12.52
2022-10-19T21:46:04.798Z,12.40
2022-10-19T21:48:31.611Z,12.95
2022-10-19T21:50:58.124Z,12.20
2022-10-19T21:53:24.617Z,12.75
2022-10-19T21:55:51.733Z,13.55
2022-10-19T21:58:18.173Z,13.15
2022-10-19T22:00:44.549Z,13.32
2022-10-19T22:03:10.959Z,13.43
2022-10-19T22:05:37.392Z,14.13
2022-10-19T22:08:03.829Z,13.35
2022-10-19T22:10:30.155Z,14.13
2022-10-19T22:12:56.558Z,12.73
2022-10-19T22:15:23.091Z,13.38
2022-10-19T22:17:50.029Z,12.95
2022-10-19T22:20:16.397Z,12.98
2022-10-19T22:22:42.763Z,13.05
2022-10-19T22:25:09.195Z,12.90
2022-10-19T22:27:35.575Z,12.85
2022-10-19T22:30:01.996Z,13.77
2022-10-19T22:32:28.340Z,13.32
2022-10-19T22:34:54.691Z,13.90
2022-10-19T22:37:21.027Z,13.70
2022-10-19T22:39:47.331Z,14.23
2022-10-19T22:42:13.691Z,15.32
2022-10-19T22:44:40.014Z,14.43
2022-10-19T22:47:06.334Z,15.40
2022-10-19T22:49:33.169Z,14.38
2022-10-19T22:51:59.553Z,15.15
2022-10-19T22:54:25.878Z,13.70
2022-10-19T22:56:52.283Z,15.65
2022-10-19T22:59:18.621Z,16.63
2022-10-19T23:01:45.062Z,16.63
2022-10-19T23:04:11.431Z,16.35
2022-10-19T23:06:37.795Z,16.25
2022-10-19T23:09:04.216Z,15.77
2022-10-19T23:11:30.590Z,16.33
2022-10-19T23:13:56.936Z,16.83
2022-10-19T23:16:23.309Z,16.08
2022-10-19T23:18:49.702Z,16.25
2022-10-19T23:21:16.126Z,16.98
2022-10-19T23:23:42.697Z,15.63
2022-10-19T23:26:16.595Z,16.92
2022-10-19T23:28:44.230Z,16.20
2022-10-19T23:31:12.215Z,15.60
2022-10-19T23:33:38.995Z,16.23
2022-10-19T23:36:09.854Z,15.83
2022-10-19T23:38:36.375Z,16.17
2022-10-19T23:41:02.796Z,16.63
2022-10-19T23:43:29.219Z,15.77
2022-10-19T23:45:55.794Z,15.57
2022-10-19T23:48:22.308Z,15.25
2022-10-19T23:50:58.206Z,14.93
2022-10-19T23:53:24.772Z,14.82
2022-10-19T23:55:51.303Z,14.52
2022-10-19T23:58:17.638Z,13.93
